Columbus Air Force Base
KCBM : now visible

Airfield :











YOU CAN JOIN US ON...

 
LOGIN :

Register | Disclaimer

   EN    FR    IT 

 









Legend :    VFR   Marginal VFR   IFR   Intensive IFR   Very Intensive IFR
Visi :
Ceiling :
>= 8 km
>= 3000ft
5 to 8 km
1000 to 3000 ft
1500m to 5 km
500 to 1000 ft
800 to 1500m
200 to 500 ft
< 800m
< 200 ft
Symbols :   Thunderstorms  Fog  Heavy snow  Heavy precipitations  Wind > 20 kt






- Airport Elevation : 219 ft


KCBM - Columbus Air Force Base

CURRENT METAR :
  • 121756Z 35009KT 10SM BKN028 OVC033 21/13 A3016 RMK AO2A SLP215 T02070134 10209 20137 58005 $

EXPIRED METARs :
  • 121601Z AUTO 01008KT 10SM BKN021 OVC029 18/13 A3017 RMK AO2 SLP218 $
  • 121556Z AUTO 02007KT 10SM BKN020 OVC029 18/13 A3018 RMK AO2 SLP222 T01830125 $
  • 121512Z 35006KT 10SM SCT018 BKN035 18/12 A3018 RMK SLP222 $
  • 121506Z AUTO 36006KT 10SM BKN018 18/13 A3018 RMK AO2 BKN V SCT SLP222 $

TAF AMD TAF KCBM
Valid from the 12 at 15:00 until the 13 at 15:00 UTC


121600Z 1215/1315 04009KT 9999 BKN020 QNH3009INS
BECMG 1217/1218 03010G15KT 9999 SCT040 QNH3009INS
BECMG 1221/1222 04006KT 9999 FEW050 510105 QNH3009INS TX21/1221Z TN14/1311Z
KZME FIR / North America



MET'MAP, your aeronautical weather chart ! - Copyright ORBIFLY December 2007 - Disclaimer

ORBIFLY MET'MAP TEAM :

Programming & Development : Alexandra Zaïnal
Concept & original design : Baudouin d'Aumeries
Assistance for programming : Marc-Olivier Méhu
Technical & hardware support : Manuel Goepfert

Contact : metmap@orbifly.com




SOURCES & CREDITS :

   NOAA       Earth
Advisory